sensor_id;sensor_type;location;lat;lon;timestamp;P1;durP1;ratioP1;P2;durP2;ratioP2
64936;SDS011;51452;47.698;19.050;2024-03-02T00:01:58;21.70;;;13.38;;
64936;SDS011;51452;47.698;19.050;2024-03-02T00:04:23;26.65;;;12.93;;
64936;SDS011;51452;47.698;19.050;2024-03-02T00:06:51;22.52;;;13.30;;
64936;SDS011;51452;47.698;19.050;2024-03-02T00:09:21;23.75;;;14.00;;
64936;SDS011;51452;47.698;19.050;2024-03-02T00:11:46;24.02;;;14.02;;
64936;SDS011;51452;47.698;19.050;2024-03-02T00:14:14;19.88;;;12.48;;
64936;SDS011;51452;47.698;19.050;2024-03-02T00:16:40;20.13;;;12.43;;
64936;SDS011;51452;47.698;19.050;2024-03-02T00:19:06;21.13;;;13.35;;
64936;SDS011;51452;47.698;19.050;2024-03-02T00:21:33;22.10;;;11.85;;
64936;SDS011;51452;47.698;19.050;2024-03-02T00:23:59;26.90;;;13.27;;
64936;SDS011;51452;47.698;19.050;2024-03-02T00:26:27;24.92;;;14.63;;
64936;SDS011;51452;47.698;19.050;2024-03-02T00:28:54;26.70;;;14.52;;
64936;SDS011;51452;47.698;19.050;2024-03-02T00:31:21;24.88;;;15.15;;
64936;SDS011;51452;47.698;19.050;2024-03-02T00:33:47;25.73;;;13.88;;
64936;SDS011;51452;47.698;19.050;2024-03-02T00:36:14;25.77;;;14.68;;
64936;SDS011;51452;47.698;19.050;2024-03-02T00:38:51;24.63;;;14.10;;
64936;SDS011;51452;47.698;19.050;2024-03-02T00:41:21;26.58;;;14.98;;
64936;SDS011;51452;47.698;19.050;2024-03-02T00:46:24;23.42;;;14.23;;
64936;SDS011;51452;47.698;19.050;2024-03-02T00:51:23;22.05;;;13.18;;
64936;SDS011;51452;47.698;19.050;2024-03-02T00:53:53;24.42;;;13.55;;
64936;SDS011;51452;47.698;19.050;2024-03-02T00:56:21;23.05;;;14.15;;
64936;SDS011;51452;47.698;19.050;2024-03-02T00:58:47;22.38;;;13.30;;
64936;SDS011;51452;47.698;19.050;2024-03-02T01:01:13;27.23;;;15.32;;
64936;SDS011;51452;47.698;19.050;2024-03-02T01:03:39;26.63;;;13.88;;
64936;SDS011;51452;47.698;19.050;2024-03-02T01:06:04;24.48;;;13.50;;
64936;SDS011;51452;47.698;19.050;2024-03-02T01:08:32;24.60;;;13.70;;
64936;SDS011;51452;47.698;19.050;2024-03-02T01:10:58;23.85;;;14.70;;
64936;SDS011;51452;47.698;19.050;2024-03-02T01:13:24;24.50;;;13.68;;
64936;SDS011;51452;47.698;19.050;2024-03-02T01:15:50;28.30;;;15.05;;
64936;SDS011;51452;47.698;19.050;2024-03-02T01:18:15;26.92;;;14.93;;
64936;SDS011;51452;47.698;19.050;2024-03-02T01:20:40;23.70;;;14.15;;
64936;SDS011;51452;47.698;19.050;2024-03-02T01:23:06;27.38;;;14.25;;
64936;SDS011;51452;47.698;19.050;2024-03-02T01:25:31;28.33;;;15.55;;
64936;SDS011;51452;47.698;19.050;2024-03-02T01:27:57;26.65;;;14.65;;
64936;SDS011;51452;47.698;19.050;2024-03-02T01:30:22;26.50;;;15.18;;
64936;SDS011;51452;47.698;19.050;2024-03-02T01:32:48;30.90;;;16.60;;
64936;SDS011;51452;47.698;19.050;2024-03-02T01:35:13;31.15;;;16.40;;
64936;SDS011;51452;47.698;19.050;2024-03-02T01:37:40;29.73;;;15.65;;
64936;SDS011;51452;47.698;19.050;2024-03-02T01:40:06;31.38;;;14.80;;
64936;SDS011;51452;47.698;19.050;2024-03-02T01:42:37;28.63;;;15.60;;
64936;SDS011;51452;47.698;19.050;2024-03-02T01:45:04;24.88;;;14.90;;
64936;SDS011;51452;47.698;19.050;2024-03-02T01:47:31;25.67;;;15.50;;
64936;SDS011;51452;47.698;19.050;2024-03-02T01:49:57;26.33;;;15.35;;
64936;SDS011;51452;47.698;19.050;2024-03-02T01:52:23;32.22;;;16.50;;
64936;SDS011;51452;47.698;19.050;2024-03-02T01:54:49;27.73;;;16.13;;
64936;SDS011;51452;47.698;19.050;2024-03-02T01:57:14;28.75;;;16.00;;
64936;SDS011;51452;47.698;19.050;2024-03-02T01:59:40;26.73;;;14.00;;
64936;SDS011;51452;47.698;19.050;2024-03-02T02:02:06;25.77;;;14.48;;
64936;SDS011;51452;47.698;19.050;2024-03-02T02:04:32;21.13;;;12.98;;
64936;SDS011;51452;47.698;19.050;2024-03-02T02:06:57;20.08;;;13.07;;
64936;SDS011;51452;47.698;19.050;2024-03-02T02:09:24;24.80;;;13.65;;
64936;SDS011;51452;47.698;19.050;2024-03-02T02:11:50;20.90;;;12.32;;
64936;SDS011;51452;47.698;19.050;2024-03-02T02:14:16;22.92;;;12.98;;
64936;SDS011;51452;47.698;19.050;2024-03-02T02:16:41;22.38;;;13.02;;
64936;SDS011;51452;47.698;19.050;2024-03-02T02:19:07;24.02;;;13.02;;
64936;SDS011;51452;47.698;19.050;2024-03-02T02:21:33;27.30;;;13.00;;
64936;SDS011;51452;47.698;19.050;2024-03-02T02:23:58;27.05;;;14.57;;
64936;SDS011;51452;47.698;19.050;2024-03-02T02:26:23;22.15;;;12.32;;
64936;SDS011;51452;47.698;19.050;2024-03-02T02:28:49;27.83;;;14.48;;
64936;SDS011;51452;47.698;19.050;2024-03-02T02:31:15;26.40;;;15.25;;
64936;SDS011;51452;47.698;19.050;2024-03-02T02:33:41;26.38;;;13.88;;
64936;SDS011;51452;47.698;19.050;2024-03-02T02:36:07;27.35;;;14.73;;
64936;SDS011;51452;47.698;19.050;2024-03-02T02:38:33;25.10;;;13.82;;
64936;SDS011;51452;47.698;19.050;2024-03-02T02:41:01;23.45;;;14.07;;
64936;SDS011;51452;47.698;19.050;2024-03-02T02:43:27;23.33;;;13.63;;
64936;SDS011;51452;47.698;19.050;2024-03-02T02:45:52;24.98;;;13.23;;
64936;SDS011;51452;47.698;19.050;2024-03-02T02:48:18;25.13;;;14.02;;
64936;SDS011;51452;47.698;19.050;2024-03-02T02:50:43;23.48;;;13.43;;
64936;SDS011;51452;47.698;19.050;2024-03-02T02:53:09;23.73;;;13.95;;
64936;SDS011;51452;47.698;19.050;2024-03-02T02:55:35;23.50;;;13.65;;
64936;SDS011;51452;47.698;19.050;2024-03-02T02:58:05;25.15;;;14.02;;
64936;SDS011;51452;47.698;19.050;2024-03-02T03:00:31;23.80;;;13.60;;
64936;SDS011;51452;47.698;19.050;2024-03-02T03:02:56;22.13;;;12.90;;
64936;SDS011;51452;47.698;19.050;2024-03-02T03:05:22;24.30;;;13.75;;
64936;SDS011;51452;47.698;19.050;2024-03-02T03:07:47;21.88;;;13.07;;
64936;SDS011;51452;47.698;19.050;2024-03-02T03:10:15;25.02;;;14.35;;
64936;SDS011;51452;47.698;19.050;2024-03-02T03:12:41;27.98;;;13.55;;
64936;SDS011;51452;47.698;19.050;2024-03-02T03:15:10;24.15;;;14.52;;
64936;SDS011;51452;47.698;19.050;2024-03-02T03:17:36;25.88;;;13.88;;
64936;SDS011;51452;47.698;19.050;2024-03-02T03:20:02;25.17;;;13.88;;
64936;SDS011;51452;47.698;19.050;2024-03-02T03:22:29;24.48;;;14.20;;
64936;SDS011;51452;47.698;19.050;2024-03-02T03:24:55;21.67;;;13.73;;
64936;SDS011;51452;47.698;19.050;2024-03-02T03:27:20;24.70;;;13.85;;
64936;SDS011;51452;47.698;19.050;2024-03-02T03:29:46;24.38;;;12.85;;
64936;SDS011;51452;47.698;19.050;2024-03-02T03:32:11;27.13;;;13.80;;
64936;SDS011;51452;47.698;19.050;2024-03-02T03:34:37;26.00;;;13.77;;
64936;SDS011;51452;47.698;19.050;2024-03-02T03:37:02;24.73;;;13.75;;
64936;SDS011;51452;47.698;19.050;2024-03-02T03:39:28;26.33;;;14.88;;
64936;SDS011;51452;47.698;19.050;2024-03-02T03:41:54;25.58;;;13.85;;
64936;SDS011;51452;47.698;19.050;2024-03-02T03:44:19;25.92;;;14.50;;
64936;SDS011;51452;47.698;19.050;2024-03-02T03:46:45;27.33;;;14.73;;
64936;SDS011;51452;47.698;19.050;2024-03-02T03:49:10;25.35;;;14.98;;
64936;SDS011;51452;47.698;19.050;2024-03-02T03:51:38;22.73;;;14.32;;
64936;SDS011;51452;47.698;19.050;2024-03-02T03:54:03;27.70;;;15.00;;
64936;SDS011;51452;47.698;19.050;2024-03-02T03:56:29;24.35;;;14.32;;
64936;SDS011;51452;47.698;19.050;2024-03-02T03:58:54;25.90;;;14.68;;
64936;SDS011;51452;47.698;19.050;2024-03-02T04:01:19;23.92;;;13.93;;
64936;SDS011;51452;47.698;19.050;2024-03-02T04:03:47;26.48;;;15.45;;
64936;SDS011;51452;47.698;19.050;2024-03-02T04:06:12;27.20;;;15.10;;
64936;SDS011;51452;47.698;19.050;2024-03-02T04:08:38;25.77;;;14.68;;
64936;SDS011;51452;47.698;19.050;2024-03-02T04:11:04;27.95;;;15.07;;
64936;SDS011;51452;47.698;19.050;2024-03-02T04:13:30;24.63;;;15.55;;
64936;SDS011;51452;47.698;19.050;2024-03-02T04:15:55;28.83;;;14.80;;
64936;SDS011;51452;47.698;19.050;2024-03-02T04:18:20;26.95;;;15.43;;
64936;SDS011;51452;47.698;19.050;2024-03-02T04:20:46;29.02;;;15.70;;
64936;SDS011;51452;47.698;19.050;2024-03-02T04:23:11;25.58;;;14.88;;
64936;SDS011;51452;47.698;19.050;2024-03-02T04:25:36;27.08;;;15.35;;
64936;SDS011;51452;47.698;19.050;2024-03-02T04:28:02;34.60;;;16.55;;
64936;SDS011;51452;47.698;19.050;2024-03-02T04:30:27;27.70;;;14.88;;
64936;SDS011;51452;47.698;19.050;2024-03-02T04:32:53;29.40;;;15.98;;
64936;SDS011;51452;47.698;19.050;2024-03-02T04:35:18;27.20;;;14.68;;
64936;SDS011;51452;47.698;19.050;2024-03-02T04:37:44;27.08;;;15.02;;
64936;SDS011;51452;47.698;19.050;2024-03-02T04:40:09;25.67;;;15.82;;
64936;SDS011;51452;47.698;19.050;2024-03-02T04:42:35;29.73;;;15.35;;
64936;SDS011;51452;47.698;19.050;2024-03-02T04:45:01;23.20;;;14.73;;
64936;SDS011;51452;47.698;19.050;2024-03-02T04:47:26;27.85;;;15.68;;
64936;SDS011;51452;47.698;19.050;2024-03-02T04:49:52;27.67;;;15.13;;
64936;SDS011;51452;47.698;19.050;2024-03-02T04:52:17;25.90;;;15.43;;
64936;SDS011;51452;47.698;19.050;2024-03-02T04:54:43;25.73;;;15.35;;
64936;SDS011;51452;47.698;19.050;2024-03-02T04:57:27;28.33;;;15.90;;
64936;SDS011;51452;47.698;19.050;2024-03-02T04:59:52;25.60;;;15.68;;
64936;SDS011;51452;47.698;19.050;2024-03-02T05:02:18;27.27;;;15.45;;
64936;SDS011;51452;47.698;19.050;2024-03-02T05:04:43;29.35;;;15.80;;
64936;SDS011;51452;47.698;19.050;2024-03-02T05:07:09;27.40;;;15.70;;
64936;SDS011;51452;47.698;19.050;2024-03-02T05:09:35;25.08;;;15.10;;
64936;SDS011;51452;47.698;19.050;2024-03-02T05:12:00;28.15;;;15.32;;
64936;SDS011;51452;47.698;19.050;2024-03-02T05:14:48;28.17;;;16.13;;
64936;SDS011;51452;47.698;19.050;2024-03-02T05:17:14;26.67;;;15.82;;
64936;SDS011;51452;47.698;19.050;2024-03-02T05:19:39;28.35;;;15.88;;
64936;SDS011;51452;47.698;19.050;2024-03-02T05:22:04;23.90;;;14.77;;
64936;SDS011;51452;47.698;19.050;2024-03-02T05:24:30;29.27;;;16.08;;
64936;SDS011;51452;47.698;19.050;2024-03-02T05:26:56;25.98;;;15.55;;
64936;SDS011;51452;47.698;19.050;2024-03-02T05:29:21;26.38;;;15.57;;
64936;SDS011;51452;47.698;19.050;2024-03-02T05:31:47;26.05;;;15.48;;
64936;SDS011;51452;47.698;19.050;2024-03-02T05:34:13;27.92;;;15.65;;
64936;SDS011;51452;47.698;19.050;2024-03-02T05:36:38;27.85;;;16.30;;
64936;SDS011;51452;47.698;19.050;2024-03-02T05:39:04;26.50;;;15.15;;
64936;SDS011;51452;47.698;19.050;2024-03-02T05:41:31;25.52;;;15.90;;
64936;SDS011;51452;47.698;19.050;2024-03-02T05:43:57;29.67;;;16.58;;
64936;SDS011;51452;47.698;19.050;2024-03-02T05:46:22;29.98;;;16.73;;
64936;SDS011;51452;47.698;19.050;2024-03-02T05:48:48;29.63;;;16.73;;
64936;SDS011;51452;47.698;19.050;2024-03-02T05:51:13;28.75;;;16.42;;
64936;SDS011;51452;47.698;19.050;2024-03-02T05:53:38;26.63;;;15.32;;
64936;SDS011;51452;47.698;19.050;2024-03-02T05:56:04;27.27;;;16.77;;
64936;SDS011;51452;47.698;19.050;2024-03-02T05:58:30;26.70;;;15.77;;
64936;SDS011;51452;47.698;19.050;2024-03-02T06:00:59;30.10;;;16.63;;
64936;SDS011;51452;47.698;19.050;2024-03-02T06:03:24;31.50;;;16.98;;
64936;SDS011;51452;47.698;19.050;2024-03-02T06:05:50;30.63;;;16.23;;
64936;SDS011;51452;47.698;19.050;2024-03-02T06:08:16;28.58;;;16.15;;
64936;SDS011;51452;47.698;19.050;2024-03-02T06:10:41;26.17;;;16.58;;
64936;SDS011;51452;47.698;19.050;2024-03-02T06:13:06;27.55;;;15.48;;
64936;SDS011;51452;47.698;19.050;2024-03-02T06:15:32;27.70;;;15.95;;
64936;SDS011;51452;47.698;19.050;2024-03-02T06:17:58;27.02;;;16.23;;
64936;SDS011;51452;47.698;19.050;2024-03-02T06:20:23;26.80;;;16.58;;
64936;SDS011;51452;47.698;19.050;2024-03-02T06:22:49;30.58;;;16.70;;
64936;SDS011;51452;47.698;19.050;2024-03-02T06:25:14;27.92;;;16.35;;
64936;SDS011;51452;47.698;19.050;2024-03-02T06:27:40;29.38;;;16.90;;
64936;SDS011;51452;47.698;19.050;2024-03-02T06:30:05;30.00;;;18.20;;
64936;SDS011;51452;47.698;19.050;2024-03-02T06:32:31;29.75;;;17.85;;
64936;SDS011;51452;47.698;19.050;2024-03-02T06:34:56;30.20;;;17.05;;
64936;SDS011;51452;47.698;19.050;2024-03-02T06:37:22;31.75;;;17.13;;
64936;SDS011;51452;47.698;19.050;2024-03-02T06:39:47;30.77;;;17.15;;
64936;SDS011;51452;47.698;19.050;2024-03-02T06:42:12;30.42;;;17.50;;
64936;SDS011;51452;47.698;19.050;2024-03-02T06:44:38;32.95;;;17.65;;
64936;SDS011;51452;47.698;19.050;2024-03-02T06:47:03;30.77;;;17.20;;
64936;SDS011;51452;47.698;19.050;2024-03-02T06:49:29;29.60;;;17.42;;
64936;SDS011;51452;47.698;19.050;2024-03-02T06:51:55;29.35;;;16.80;;
64936;SDS011;51452;47.698;19.050;2024-03-02T06:54:20;28.30;;;16.55;;
64936;SDS011;51452;47.698;19.050;2024-03-02T06:56:46;27.92;;;17.20;;
64936;SDS011;51452;47.698;19.050;2024-03-02T06:59:11;31.13;;;17.17;;
64936;SDS011;51452;47.698;19.050;2024-03-02T07:01:37;28.80;;;16.90;;
64936;SDS011;51452;47.698;19.050;2024-03-02T07:04:02;32.63;;;18.00;;
64936;SDS011;51452;47.698;19.050;2024-03-02T07:06:27;32.03;;;17.27;;
64936;SDS011;51452;47.698;19.050;2024-03-02T07:08:53;31.40;;;17.35;;
64936;SDS011;51452;47.698;19.050;2024-03-02T07:11:19;30.10;;;17.63;;
64936;SDS011;51452;47.698;19.050;2024-03-02T07:13:44;28.95;;;17.80;;
64936;SDS011;51452;47.698;19.050;2024-03-02T07:16:09;28.02;;;16.67;;
64936;SDS011;51452;47.698;19.050;2024-03-02T07:18:52;29.48;;;16.42;;
64936;SDS011;51452;47.698;19.050;2024-03-02T07:21:20;28.45;;;17.13;;
64936;SDS011;51452;47.698;19.050;2024-03-02T07:23:47;32.55;;;18.25;;
64936;SDS011;51452;47.698;19.050;2024-03-02T07:26:13;29.27;;;17.42;;
64936;SDS011;51452;47.698;19.050;2024-03-02T07:28:40;30.10;;;18.33;;
64936;SDS011;51452;47.698;19.050;2024-03-02T07:31:06;28.52;;;17.30;;
64936;SDS011;51452;47.698;19.050;2024-03-02T07:33:32;31.30;;;18.23;;
64936;SDS011;51452;47.698;19.050;2024-03-02T07:35:57;28.92;;;17.05;;
64936;SDS011;51452;47.698;19.050;2024-03-02T07:38:25;28.55;;;17.67;;
64936;SDS011;51452;47.698;19.050;2024-03-02T07:40:50;30.08;;;17.50;;
64936;SDS011;51452;47.698;19.050;2024-03-02T07:43:16;29.08;;;17.42;;
64936;SDS011;51452;47.698;19.050;2024-03-02T07:45:42;32.10;;;17.95;;
64936;SDS011;51452;47.698;19.050;2024-03-02T07:48:07;30.60;;;17.40;;
64936;SDS011;51452;47.698;19.050;2024-03-02T07:50:33;31.38;;;17.33;;
64936;SDS011;51452;47.698;19.050;2024-03-02T07:53:00;27.60;;;17.13;;
64936;SDS011;51452;47.698;19.050;2024-03-02T07:55:26;32.05;;;18.02;;
64936;SDS011;51452;47.698;19.050;2024-03-02T07:57:51;29.17;;;17.13;;
64936;SDS011;51452;47.698;19.050;2024-03-02T08:00:16;27.58;;;16.90;;
64936;SDS011;51452;47.698;19.050;2024-03-02T08:02:42;27.55;;;17.13;;
64936;SDS011;51452;47.698;19.050;2024-03-02T08:05:07;28.50;;;17.35;;
64936;SDS011;51452;47.698;19.050;2024-03-02T08:07:33;31.15;;;17.35;;
64936;SDS011;51452;47.698;19.050;2024-03-02T08:09:59;30.90;;;17.70;;
64936;SDS011;51452;47.698;19.050;2024-03-02T08:12:24;27.55;;;16.52;;
64936;SDS011;51452;47.698;19.050;2024-03-02T08:14:50;29.58;;;17.13;;
64936;SDS011;51452;47.698;19.050;2024-03-02T08:17:15;28.45;;;17.20;;
64936;SDS011;51452;47.698;19.050;2024-03-02T08:19:41;29.08;;;17.05;;
64936;SDS011;51452;47.698;19.050;2024-03-02T08:22:06;30.80;;;16.67;;
64936;SDS011;51452;47.698;19.050;2024-03-02T08:24:32;33.22;;;16.75;;
64936;SDS011;51452;47.698;19.050;2024-03-02T08:26:58;28.83;;;16.67;;
64936;SDS011;51452;47.698;19.050;2024-03-02T08:29:26;26.05;;;16.48;;
64936;SDS011;51452;47.698;19.050;2024-03-02T08:31:52;25.98;;;16.48;;
64936;SDS011;51452;47.698;19.050;2024-03-02T08:34:18;30.35;;;18.17;;
64936;SDS011;51452;47.698;19.050;2024-03-02T08:36:43;28.20;;;17.35;;
64936;SDS011;51452;47.698;19.050;2024-03-02T08:39:09;28.20;;;16.52;;
64936;SDS011;51452;47.698;19.050;2024-03-02T08:41:41;30.27;;;17.30;;
64936;SDS011;51452;47.698;19.050;2024-03-02T08:44:08;28.92;;;16.88;;
64936;SDS011;51452;47.698;19.050;2024-03-02T08:46:34;28.85;;;17.35;;
64936;SDS011;51452;47.698;19.050;2024-03-02T08:48:59;34.38;;;17.88;;
64936;SDS011;51452;47.698;19.050;2024-03-02T08:51:25;28.63;;;17.23;;
64936;SDS011;51452;47.698;19.050;2024-03-02T08:53:51;31.15;;;18.30;;
64936;SDS011;51452;47.698;19.050;2024-03-02T08:56:16;30.10;;;18.30;;
64936;SDS011;51452;47.698;19.050;2024-03-02T08:58:42;29.50;;;17.55;;
64936;SDS011;51452;47.698;19.050;2024-03-02T09:01:08;28.60;;;17.30;;
64936;SDS011;51452;47.698;19.050;2024-03-02T09:03:35;25.83;;;16.15;;
64936;SDS011;51452;47.698;19.050;2024-03-02T09:06:00;32.50;;;17.73;;
64936;SDS011;51452;47.698;19.050;2024-03-02T09:08:26;29.67;;;17.48;;
64936;SDS011;51452;47.698;19.050;2024-03-02T09:10:51;28.65;;;17.13;;
64936;SDS011;51452;47.698;19.050;2024-03-02T09:13:17;26.33;;;17.02;;
64936;SDS011;51452;47.698;19.050;2024-03-02T09:15:43;24.52;;;16.00;;
64936;SDS011;51452;47.698;19.050;2024-03-02T09:18:09;26.20;;;16.15;;
64936;SDS011;51452;47.698;19.050;2024-03-02T09:20:35;26.33;;;15.38;;
64936;SDS011;51452;47.698;19.050;2024-03-02T09:23:00;29.08;;;15.70;;
64936;SDS011;51452;47.698;19.050;2024-03-02T09:25:26;27.95;;;16.70;;
64936;SDS011;51452;47.698;19.050;2024-03-02T09:27:51;25.60;;;15.80;;
64936;SDS011;51452;47.698;19.050;2024-03-02T09:30:16;22.73;;;15.20;;
64936;SDS011;51452;47.698;19.050;2024-03-02T09:32:42;21.63;;;14.45;;
64936;SDS011;51452;47.698;19.050;2024-03-02T09:35:07;22.73;;;14.75;;
64936;SDS011;51452;47.698;19.050;2024-03-02T09:37:34;23.30;;;14.15;;
64936;SDS011;51452;47.698;19.050;2024-03-02T09:40:00;19.88;;;13.52;;
64936;SDS011;51452;47.698;19.050;2024-03-02T09:42:26;23.00;;;13.75;;
64936;SDS011;51452;47.698;19.050;2024-03-02T09:44:52;21.65;;;13.90;;
64936;SDS011;51452;47.698;19.050;2024-03-02T09:47:20;20.83;;;13.35;;
64936;SDS011;51452;47.698;19.050;2024-03-02T09:49:45;21.85;;;14.20;;
64936;SDS011;51452;47.698;19.050;2024-03-02T09:52:11;21.55;;;13.85;;
64936;SDS011;51452;47.698;19.050;2024-03-02T09:54:38;20.60;;;13.60;;
64936;SDS011;51452;47.698;19.050;2024-03-02T09:57:04;19.98;;;13.35;;
64936;SDS011;51452;47.698;19.050;2024-03-02T09:59:29;23.90;;;13.57;;
64936;SDS011;51452;47.698;19.050;2024-03-02T10:01:55;19.30;;;13.35;;
64936;SDS011;51452;47.698;19.050;2024-03-02T10:04:25;21.15;;;12.90;;
64936;SDS011;51452;47.698;19.050;2024-03-02T10:06:51;20.38;;;13.68;;
64936;SDS011;51452;47.698;19.050;2024-03-02T10:09:29;22.23;;;14.45;;
64936;SDS011;51452;47.698;19.050;2024-03-02T10:12:01;22.98;;;14.70;;
64936;SDS011;51452;47.698;19.050;2024-03-02T10:14:29;22.20;;;14.45;;
64936;SDS011;51452;47.698;19.050;2024-03-02T10:16:54;20.38;;;12.88;;
64936;SDS011;51452;47.698;19.050;2024-03-02T10:19:30;19.33;;;12.70;;
64936;SDS011;51452;47.698;19.050;2024-03-02T10:22:00;22.00;;;12.57;;
64936;SDS011;51452;47.698;19.050;2024-03-02T10:24:27;16.95;;;12.20;;
64936;SDS011;51452;47.698;19.050;2024-03-02T10:27:01;18.92;;;12.43;;
64936;SDS011;51452;47.698;19.050;2024-03-02T10:29:29;19.40;;;11.98;;
64936;SDS011;51452;47.698;19.050;2024-03-02T10:31:55;19.38;;;12.05;;
64936;SDS011;51452;47.698;19.050;2024-03-02T10:34:21;18.63;;;11.93;;
64936;SDS011;51452;47.698;19.050;2024-03-02T10:36:46;19.98;;;12.20;;
64936;SDS011;51452;47.698;19.050;2024-03-02T10:39:15;16.88;;;11.40;;
64936;SDS011;51452;47.698;19.050;2024-03-02T10:41:42;17.55;;;11.50;;
64936;SDS011;51452;47.698;19.050;2024-03-02T10:44:09;15.55;;;10.77;;
64936;SDS011;51452;47.698;19.050;2024-03-02T10:46:35;17.63;;;10.93;;
64936;SDS011;51452;47.698;19.050;2024-03-02T10:49:03;15.27;;;10.43;;
64936;SDS011;51452;47.698;19.050;2024-03-02T10:51:30;14.27;;;9.43;;
64936;SDS011;51452;47.698;19.050;2024-03-02T10:54:00;14.23;;;10.13;;
64936;SDS011;51452;47.698;19.050;2024-03-02T10:56:28;12.77;;;8.85;;
64936;SDS011;51452;47.698;19.050;2024-03-02T10:59:32;13.15;;;9.30;;
64936;SDS011;51452;47.698;19.050;2024-03-02T11:01:50;12.00;;;8.85;;
64936;SDS011;51452;47.698;19.050;2024-03-02T11:04:18;13.25;;;9.55;;
64936;SDS011;51452;47.698;19.050;2024-03-02T11:06:48;11.82;;;8.73;;
64936;SDS011;51452;47.698;19.050;2024-03-02T11:09:14;14.18;;;9.43;;
64936;SDS011;51452;47.698;19.050;2024-03-02T11:11:43;12.40;;;8.85;;
64936;SDS011;51452;47.698;19.050;2024-03-02T11:14:13;14.10;;;9.10;;
64936;SDS011;51452;47.698;19.050;2024-03-02T11:16:41;12.52;;;8.43;;
64936;SDS011;51452;47.698;19.050;2024-03-02T11:19:09;11.65;;;7.65;;
64936;SDS011;51452;47.698;19.050;2024-03-02T11:21:36;11.38;;;8.07;;
64936;SDS011;51452;47.698;19.050;2024-03-02T11:26:46;12.02;;;8.52;;
64936;SDS011;51452;47.698;19.050;2024-03-02T11:29:42;13.25;;;8.32;;
64936;SDS011;51452;47.698;19.050;2024-03-02T11:32:00;10.80;;;7.85;;
64936;SDS011;51452;47.698;19.050;2024-03-02T11:34:35;10.80;;;7.70;;
64936;SDS011;51452;47.698;19.050;2024-03-02T11:37:01;9.10;;;7.22;;
64936;SDS011;51452;47.698;19.050;2024-03-02T11:39:28;11.00;;;7.60;;
64936;SDS011;51452;47.698;19.050;2024-03-02T11:41:54;12.00;;;7.70;;
64936;SDS011;51452;47.698;19.050;2024-03-02T11:44:20;9.85;;;7.70;;
64936;SDS011;51452;47.698;19.050;2024-03-02T11:46:58;11.20;;;8.40;;
64936;SDS011;51452;47.698;19.050;2024-03-02T11:52:07;11.77;;;8.07;;
64936;SDS011;51452;47.698;19.050;2024-03-02T11:54:34;11.60;;;8.05;;
64936;SDS011;51452;47.698;19.050;2024-03-02T11:57:22;10.32;;;7.57;;
64936;SDS011;51452;47.698;19.050;2024-03-02T11:59:47;10.43;;;7.68;;
64936;SDS011;51452;47.698;19.050;2024-03-02T12:02:18;10.35;;;7.18;;
64936;SDS011;51452;47.698;19.050;2024-03-02T12:04:45;12.32;;;7.40;;
64936;SDS011;51452;47.698;19.050;2024-03-02T12:07:11;9.48;;;7.05;;
64936;SDS011;51452;47.698;19.050;2024-03-02T12:09:37;11.43;;;7.40;;
64936;SDS011;51452;47.698;19.050;2024-03-02T12:12:04;9.63;;;7.50;;
64936;SDS011;51452;47.698;19.050;2024-03-02T12:14:34;9.65;;;6.90;;
64936;SDS011;51452;47.698;19.050;2024-03-02T12:17:03;9.10;;;7.28;;
64936;SDS011;51452;47.698;19.050;2024-03-02T12:19:30;9.63;;;7.18;;
64936;SDS011;51452;47.698;19.050;2024-03-02T12:21:57;9.73;;;6.65;;
64936;SDS011;51452;47.698;19.050;2024-03-02T12:24:22;8.38;;;6.20;;
64936;SDS011;51452;47.698;19.050;2024-03-02T12:26:51;8.98;;;6.20;;
64936;SDS011;51452;47.698;19.050;2024-03-02T12:29:19;9.20;;;7.07;;
64936;SDS011;51452;47.698;19.050;2024-03-02T12:31:47;11.15;;;7.28;;
64936;SDS011;51452;47.698;19.050;2024-03-02T12:34:13;8.65;;;6.57;;
64936;SDS011;51452;47.698;19.050;2024-03-02T12:36:40;10.10;;;7.38;;
64936;SDS011;51452;47.698;19.050;2024-03-02T12:39:07;9.35;;;7.18;;
64936;SDS011;51452;47.698;19.050;2024-03-02T12:41:35;10.50;;;7.45;;
64936;SDS011;51452;47.698;19.050;2024-03-02T12:44:02;10.10;;;7.78;;
64936;SDS011;51452;47.698;19.050;2024-03-02T12:46:28;10.80;;;7.75;;
64936;SDS011;51452;47.698;19.050;2024-03-02T12:48:53;10.68;;;8.00;;
64936;SDS011;51452;47.698;19.050;2024-03-02T12:51:19;10.38;;;8.07;;
64936;SDS011;51452;47.698;19.050;2024-03-02T12:53:44;12.73;;;8.65;;
64936;SDS011;51452;47.698;19.050;2024-03-02T12:56:09;11.52;;;8.50;;
64936;SDS011;51452;47.698;19.050;2024-03-02T12:58:41;8.95;;;7.68;;
64936;SDS011;51452;47.698;19.050;2024-03-02T13:01:07;11.30;;;7.82;;
64936;SDS011;51452;47.698;19.050;2024-03-02T13:03:40;11.73;;;8.27;;
64936;SDS011;51452;47.698;19.050;2024-03-02T13:06:06;11.23;;;8.10;;
64936;SDS011;51452;47.698;19.050;2024-03-02T13:08:33;13.15;;;8.48;;
64936;SDS011;51452;47.698;19.050;2024-03-02T13:10:58;11.50;;;7.78;;
64936;SDS011;51452;47.698;19.050;2024-03-02T13:13:24;10.40;;;8.10;;
64936;SDS011;51452;47.698;19.050;2024-03-02T13:15:49;10.15;;;7.65;;
64936;SDS011;51452;47.698;19.050;2024-03-02T13:18:17;10.23;;;7.63;;
64936;SDS011;51452;47.698;19.050;2024-03-02T13:20:43;11.02;;;7.15;;
64936;SDS011;51452;47.698;19.050;2024-03-02T13:23:08;14.80;;;7.57;;
64936;SDS011;51452;47.698;19.050;2024-03-02T13:25:35;13.25;;;8.35;;
64936;SDS011;51452;47.698;19.050;2024-03-02T13:28:00;11.35;;;8.07;;
64936;SDS011;51452;47.698;19.050;2024-03-02T13:30:26;10.60;;;7.65;;
64936;SDS011;51452;47.698;19.050;2024-03-02T13:32:51;10.07;;;7.13;;
64936;SDS011;51452;47.698;19.050;2024-03-02T13:35:18;10.70;;;7.82;;
64936;SDS011;51452;47.698;19.050;2024-03-02T13:37:43;10.88;;;7.90;;
64936;SDS011;51452;47.698;19.050;2024-03-02T13:40:09;11.18;;;7.70;;
64936;SDS011;51452;47.698;19.050;2024-03-02T13:42:39;11.27;;;7.80;;
64936;SDS011;51452;47.698;19.050;2024-03-02T13:45:05;9.57;;;7.40;;
64936;SDS011;51452;47.698;19.050;2024-03-02T13:47:31;13.75;;;8.43;;
64936;SDS011;51452;47.698;19.050;2024-03-02T13:49:57;14.65;;;9.20;;
64936;SDS011;51452;47.698;19.050;2024-03-02T13:52:22;13.10;;;8.30;;
64936;SDS011;51452;47.698;19.050;2024-03-02T13:54:48;11.65;;;8.05;;
64936;SDS011;51452;47.698;19.050;2024-03-02T13:57:13;13.18;;;8.82;;
64936;SDS011;51452;47.698;19.050;2024-03-02T13:59:40;11.40;;;7.75;;
64936;SDS011;51452;47.698;19.050;2024-03-02T14:02:07;11.23;;;7.60;;
64936;SDS011;51452;47.698;19.050;2024-03-02T14:04:33;13.40;;;8.00;;
64936;SDS011;51452;47.698;19.050;2024-03-02T14:06:59;11.73;;;8.23;;
64936;SDS011;51452;47.698;19.050;2024-03-02T14:09:25;11.10;;;7.57;;
64936;SDS011;51452;47.698;19.050;2024-03-02T14:11:51;11.50;;;7.70;;
64936;SDS011;51452;47.698;19.050;2024-03-02T14:14:17;13.13;;;8.73;;
64936;SDS011;51452;47.698;19.050;2024-03-02T14:16:42;12.32;;;7.72;;
64936;SDS011;51452;47.698;19.050;2024-03-02T14:19:08;13.85;;;8.15;;
64936;SDS011;51452;47.698;19.050;2024-03-02T14:21:34;13.38;;;8.05;;